createdAt,value
2023-01-21T00:16:39.629Z,0.81
2023-01-21T00:19:41.976Z,0.76
2023-01-21T02:13:20.237Z,0.94
2023-01-21T02:18:56.972Z,0.90
2023-01-21T03:04:52.994Z,0.94
2023-01-21T03:07:31.695Z,0.95
2023-01-21T03:19:45.531Z,0.84
2023-01-21T06:00:04.791Z,1.27
2023-01-21T07:39:23.848Z,1.54
2023-01-21T07:48:12.718Z,1.44
2023-01-21T08:06:25.045Z,1.34
2023-01-21T08:08:55.049Z,1.64
2023-01-21T08:11:29.734Z,1.71
2023-01-21T08:23:06.164Z,1.70
2023-01-21T08:37:57.592Z,1.43
2023-01-21T09:01:45.539Z,1.54
2023-01-21T09:04:18.235Z,1.52
2023-01-21T09:13:31.170Z,1.42
2023-01-21T09:16:06.832Z,1.50
2023-01-21T09:18:38.584Z,1.39
2023-01-21T09:21:13.594Z,1.30
2023-01-21T09:23:44.915Z,1.17
2023-01-21T09:26:20.695Z,1.29
2023-01-21T09:28:53.924Z,1.33
2023-01-21T09:31:29.153Z,1.25
2023-01-21T09:34:14.412Z,1.28
2023-01-21T09:36:51.960Z,1.44
2023-01-21T09:39:23.989Z,1.68
2023-01-21T09:42:04.569Z,1.53
2023-01-21T09:44:45.208Z,1.43
2023-01-21T09:50:59.050Z,1.54
2023-01-21T09:53:37.481Z,1.25
2023-01-21T09:56:25.112Z,1.37
2023-01-21T09:59:06.621Z,1.53
2023-01-21T10:11:07.365Z,1.48
2023-01-21T10:14:10.594Z,1.32
2023-01-21T10:16:45.996Z,1.49
2023-01-21T10:19:23.474Z,1.31
2023-01-21T10:21:59.014Z,1.45
2023-01-21T10:24:42.743Z,1.49
2023-01-21T10:27:27.512Z,1.42
2023-01-21T10:30:12.408Z,1.49
2023-01-21T10:32:43.402Z,1.69
2023-01-21T10:35:19.677Z,1.59
2023-01-21T11:12:57.805Z,1.39
2023-01-21T11:18:44.575Z,1.49
2023-01-21T11:30:51.209Z,1.64
2023-01-21T11:33:35.001Z,1.64
2023-01-21T11:36:35.931Z,1.64
2023-01-21T11:58:49.457Z,1.36
2023-01-21T12:01:21.931Z,1.60
2023-01-21T12:04:03.257Z,1.71
2023-01-21T12:06:37.122Z,1.68
2023-01-21T12:09:11.419Z,1.65
2023-01-21T12:11:41.170Z,1.56
2023-01-21T12:14:26.946Z,1.65
2023-01-21T12:17:07.148Z,1.80
2023-01-21T12:19:54.653Z,1.64
2023-01-21T12:22:52.107Z,1.59
2023-01-21T12:25:43.463Z,1.73
2023-01-21T12:28:33.705Z,1.74
2023-01-21T12:31:28.926Z,1.75
2023-01-21T12:34:04.354Z,1.84
2023-01-21T12:36:41.041Z,1.81
2023-01-21T12:39:27.447Z,2.09
2023-01-21T12:42:16.769Z,1.73
2023-01-21T12:44:59.980Z,1.90
2023-01-21T12:47:41.877Z,1.80
2023-01-21T12:50:50.280Z,1.77
2023-01-21T12:53:37.705Z,1.82
2023-01-21T12:56:35.889Z,1.54
2023-01-21T13:02:20.677Z,1.54
2023-01-21T13:05:08.917Z,1.70
2023-01-21T13:07:51.867Z,1.80
2023-01-21T13:19:37.614Z,1.86
2023-01-21T13:32:27.942Z,1.82
2023-01-21T13:35:26.751Z,1.87
2023-01-21T13:38:08.755Z,1.81
2023-01-21T13:40:47.203Z,1.94
2023-01-21T13:46:55.892Z,2.04
2023-01-21T13:50:12.107Z,1.74
2023-01-21T14:04:49.439Z,1.72
2023-01-21T14:18:37.542Z,1.93
2023-01-21T14:21:51.615Z,1.80
2023-01-21T14:24:48.877Z,1.84
2023-01-21T14:27:27.650Z,1.90
2023-01-21T14:30:01.880Z,1.96
2023-01-21T14:32:38.065Z,1.85
2023-01-21T14:35:24.285Z,1.66
2023-01-21T14:37:59.957Z,1.71
2023-01-21T14:40:41.279Z,1.73
2023-01-21T14:48:00.953Z,1.67
2023-01-21T14:50:55.557Z,1.67
2023-01-21T14:53:32.215Z,1.98
2023-01-21T14:56:22.728Z,1.69
2023-01-21T14:59:01.770Z,1.61
2023-01-21T15:02:07.117Z,1.71
2023-01-21T15:10:32.823Z,1.58
2023-01-21T15:13:13.593Z,1.47
2023-01-21T15:16:16.427Z,1.64
2023-01-21T15:19:07.608Z,1.70
2023-01-21T15:21:46.556Z,1.57
2023-01-21T15:24:37.103Z,1.70
2023-01-21T15:27:22.056Z,1.71
2023-01-21T15:30:30.520Z,1.49
2023-01-21T15:33:02.055Z,1.58
2023-01-21T15:38:28.626Z,1.49
2023-01-21T15:41:14.677Z,1.40
2023-01-21T15:43:57.586Z,1.56
2023-01-21T15:46:35.731Z,1.52
2023-01-21T15:58:40.583Z,1.61
2023-01-21T16:01:31.818Z,1.50
2023-01-21T16:04:21.902Z,1.50
2023-01-21T16:07:12.228Z,1.65
2023-01-21T16:09:52.859Z,1.71
2023-01-21T16:12:30.207Z,1.78
2023-01-21T16:15:04.301Z,1.55
2023-01-21T16:18:02.117Z,1.63
2023-01-21T16:20:32.636Z,1.49
2023-01-21T16:23:11.316Z,1.49
2023-01-21T16:25:58.917Z,1.44
2023-01-21T16:29:02.526Z,1.46
2023-01-21T16:31:47.565Z,1.38
2023-01-21T16:34:42.102Z,1.34
2023-01-21T16:37:29.503Z,1.41
2023-01-21T16:40:38.473Z,1.39
2023-01-21T16:43:24.941Z,1.80
2023-01-21T16:45:57.894Z,1.43
2023-01-21T16:48:33.072Z,1.35
2023-01-21T16:51:19.386Z,1.60
2023-01-21T16:53:54.514Z,1.52
2023-01-21T16:56:37.953Z,1.47
2023-01-21T16:59:22.591Z,1.68
2023-01-21T17:01:51.517Z,1.61
2023-01-21T17:04:22.676Z,1.63
2023-01-21T17:07:06.684Z,1.72
2023-01-21T17:09:47.145Z,1.46
2023-01-21T17:12:35.234Z,1.48
2023-01-21T17:18:14.785Z,1.35
2023-01-21T17:20:48.148Z,1.65
2023-01-21T17:23:40.350Z,1.47
2023-01-21T17:26:23.635Z,1.57
2023-01-21T17:29:12.577Z,1.54
2023-01-21T17:32:04.095Z,1.45
2023-01-21T17:34:45.003Z,1.54
2023-01-21T17:38:02.981Z,1.42
2023-01-21T17:40:45.586Z,1.67
2023-01-21T17:43:27.696Z,1.33
2023-01-21T17:46:02.569Z,1.30
2023-01-21T17:48:44.588Z,1.68
2023-01-21T17:51:20.379Z,1.72
2023-01-21T17:54:18.396Z,1.52
2023-01-21T17:56:55.053Z,1.65
2023-01-21T17:59:39.930Z,1.41
2023-01-21T18:02:18.225Z,1.68
2023-01-21T18:04:54.701Z,1.59
2023-01-21T18:07:31.105Z,1.47
2023-01-21T18:10:06.808Z,1.55
2023-01-21T18:12:41.920Z,1.48
2023-01-21T18:15:25.944Z,1.45
2023-01-21T18:17:59.924Z,1.57
2023-01-21T18:20:33.450Z,1.69
2023-01-21T18:23:11.475Z,1.39
2023-01-21T18:25:45.264Z,1.47
2023-01-21T18:28:28.451Z,1.51
2023-01-21T18:31:04.867Z,1.36
2023-01-21T18:33:43.523Z,1.70
2023-01-21T18:36:24.554Z,1.62
2023-01-21T18:39:01.125Z,1.62
2023-01-21T18:41:33.196Z,1.51
2023-01-21T18:44:21.975Z,1.58
2023-01-21T18:47:08.707Z,1.50
2023-01-21T18:49:44.011Z,1.61
2023-01-21T18:52:29.338Z,1.67
2023-01-21T18:55:14.397Z,1.66
2023-01-21T18:57:54.833Z,1.56
2023-01-21T19:00:47.076Z,1.76
2023-01-21T19:03:24.057Z,1.51
2023-01-21T19:05:57.665Z,1.44
2023-01-21T19:08:29.216Z,1.53
2023-01-21T19:11:03.046Z,1.37
2023-01-21T19:13:38.394Z,1.54
2023-01-21T19:16:32.233Z,1.54
2023-01-21T19:19:06.826Z,1.44
2023-01-21T19:21:51.090Z,1.28
2023-01-21T19:27:09.447Z,1.46
2023-01-21T19:29:52.364Z,1.37
2023-01-21T19:32:38.582Z,1.52
2023-01-21T19:35:12.200Z,1.40
2023-01-21T19:37:57.603Z,1.41
2023-01-21T19:40:37.019Z,1.64
2023-01-21T19:43:15.571Z,1.60
2023-01-21T19:45:53.660Z,1.75
2023-01-21T19:48:36.651Z,1.48
2023-01-21T19:51:12.220Z,1.55
2023-01-21T19:53:50.464Z,1.50
2023-01-21T19:56:26.973Z,1.58
2023-01-21T19:59:05.967Z,1.60
2023-01-21T20:01:36.889Z,1.86
2023-01-21T20:04:12.894Z,1.41
2023-01-21T20:06:45.104Z,1.61
2023-01-21T20:09:25.977Z,1.36
2023-01-21T20:11:58.053Z,1.57
2023-01-21T20:14:34.384Z,1.53
2023-01-21T20:17:05.743Z,1.52
2023-01-21T20:19:51.465Z,1.35
2023-01-21T20:22:25.847Z,1.44
2023-01-21T20:25:00.543Z,1.31
2023-01-21T20:27:43.417Z,1.43
2023-01-21T20:30:29.821Z,1.53
2023-01-21T20:33:11.761Z,1.41
2023-01-21T20:35:58.947Z,1.25
2023-01-21T20:38:39.003Z,1.61
2023-01-21T20:41:18.123Z,1.50
2023-01-21T20:43:52.677Z,1.49
2023-01-21T20:46:25.119Z,1.48
2023-01-21T20:49:06.411Z,1.53
2023-01-21T20:51:38.864Z,1.55
2023-01-21T20:54:10.944Z,1.60
2023-01-21T20:56:42.101Z,1.51
2023-01-21T20:59:21.922Z,1.71
2023-01-21T21:01:59.313Z,1.54
2023-01-21T21:04:36.611Z,1.60
2023-01-21T21:07:08.114Z,1.44
2023-01-21T21:09:57.490Z,1.40
2023-01-21T21:12:39.219Z,1.31
2023-01-21T21:15:19.537Z,1.36
2023-01-21T21:17:53.531Z,1.54
2023-01-21T21:20:24.827Z,1.41
2023-01-21T21:23:04.380Z,1.30
2023-01-21T21:25:38.832Z,1.44
2023-01-21T21:28:12.001Z,1.64
2023-01-21T21:30:41.390Z,1.62
2023-01-21T21:33:23.250Z,1.59
2023-01-21T21:35:54.461Z,1.56
2023-01-21T21:38:52.616Z,1.41
2023-01-21T21:41:41.949Z,1.51
2023-01-21T21:44:19.965Z,1.44
2023-01-21T21:47:07.233Z,1.33
2023-01-21T21:49:35.991Z,1.45
2023-01-21T21:52:04.511Z,1.59
2023-01-21T21:54:50.825Z,1.64
2023-01-21T21:57:25.271Z,1.44
2023-01-21T22:00:03.166Z,1.58
2023-01-21T22:03:03.137Z,1.28
2023-01-21T22:05:44.299Z,1.42
2023-01-21T22:08:29.932Z,1.55
2023-01-21T22:11:15.503Z,1.51
2023-01-21T22:13:50.502Z,1.38
2023-01-21T22:16:23.838Z,1.22
2023-01-21T22:19:02.797Z,1.29
2023-01-21T22:21:41.577Z,1.47
2023-01-21T22:24:16.299Z,1.42
2023-01-21T22:26:49.775Z,1.45
2023-01-21T22:29:19.310Z,1.44
2023-01-21T22:31:49.593Z,1.43
2023-01-21T22:34:19.784Z,1.41
2023-01-21T22:36:52.345Z,1.29
2023-01-21T22:39:26.016Z,1.57
2023-01-21T22:42:05.808Z,1.34
2023-01-21T22:44:47.927Z,1.22
2023-01-21T22:47:24.214Z,1.46
2023-01-21T22:49:58.484Z,1.26
2023-01-21T22:52:29.258Z,1.47
2023-01-21T22:55:17.156Z,1.55
2023-01-21T22:57:55.273Z,1.48
2023-01-21T23:00:43.615Z,1.65
2023-01-21T23:03:21.821Z,1.56
2023-01-21T23:05:51.749Z,1.43
2023-01-21T23:08:26.880Z,1.26
2023-01-21T23:11:01.774Z,1.31
2023-01-21T23:13:35.658Z,1.46
2023-01-21T23:16:14.622Z,1.49
2023-01-21T23:18:52.596Z,1.39
2023-01-21T23:21:27.848Z,1.42
2023-01-21T23:24:10.413Z,1.32
2023-01-21T23:26:40.160Z,1.38
2023-01-21T23:29:14.423Z,1.74
2023-01-21T23:31:46.346Z,1.48
2023-01-21T23:34:19.416Z,1.27
2023-01-21T23:36:48.859Z,1.38
2023-01-21T23:39:20.816Z,1.40
2023-01-21T23:41:50.697Z,1.43
2023-01-21T23:44:38.967Z,1.58
2023-01-21T23:47:15.641Z,1.36
2023-01-21T23:49:46.078Z,1.43
2023-01-21T23:52:22.620Z,1.33
2023-01-21T23:54:56.949Z,1.47
2023-01-21T23:57:40.027Z,1.26
